Time;durP1;ratioP1;P1;durP2;ratioP2;P2;SDS_P1;SDS_P2;PMS_P1;PMS_P2;Temp;Humidity;BMP_temperature;BMP_pressure;BME280_temperature;BME280_humidity;BME280_pressure;Samples;Min_cycle;Max_cycle;Signal;HPM_P1;HPM_P2
2021/08/25 00:00:22;;;;;;;0.90;0.90;;;14.90;98.10;;;;;;5068864;28;20216;-73
2021/08/25 00:02:49;;;;;;;0.90;0.90;;;14.90;98.20;;;;;;5069244;28;20204;-73
2021/08/25 00:05:18;;;;;;;0.67;0.67;;;14.80;98.30;;;;;;5069990;28;20230;-74
2021/08/25 00:07:45;;;;;;;0.70;0.70;;;14.80;98.40;;;;;;5067411;28;20236;-73
2021/08/25 00:10:12;;;;;;;0.90;0.90;;;14.80;98.50;;;;;;5068337;28;20228;-73
2021/08/25 00:12:40;;;;;;;1.20;0.80;;;14.70;98.60;;;;;;5068255;28;20204;-73
2021/08/25 00:15:08;;;;;;;0.83;0.83;;;14.70;98.80;;;;;;5069336;28;20208;-73
2021/08/25 00:17:35;;;;;;;0.90;0.90;;;14.70;98.90;;;;;;5069062;28;20219;-74
2021/08/25 00:20:02;;;;;;;0.70;0.70;;;14.70;99.10;;;;;;5069777;28;20204;-73
2021/08/25 00:22:30;;;;;;;0.80;0.80;;;14.70;99.20;;;;;;5067218;28;20207;-74
2021/08/25 00:24:57;;;;;;;1.20;0.90;;;14.70;99.30;;;;;;5067879;28;20297;-73
2021/08/25 00:27:24;;;;;;;0.80;0.80;;;14.60;99.40;;;;;;5068811;28;20218;-74
2021/08/25 00:29:51;;;;;;;1.00;0.97;;;14.60;99.60;;;;;;5067803;28;20235;-74
2021/08/25 00:32:18;;;;;;;0.77;0.77;;;14.50;99.60;;;;;;5065581;28;20516;-74
2021/08/25 00:34:45;;;;;;;0.80;0.80;;;14.60;99.80;;;;;;5065131;28;20222;-73
2021/08/25 00:37:12;;;;;;;0.70;0.70;;;14.50;99.90;;;;;;5068801;28;20299;-74
2021/08/25 00:39:40;;;;;;;0.77;0.77;;;14.50;99.90;;;;;;5068491;28;20249;-74
2021/08/25 00:42:07;;;;;;;0.70;0.70;;;14.50;99.90;;;;;;5057482;28;20242;-73
2021/08/25 00:44:34;;;;;;;1.43;0.90;;;14.50;99.90;;;;;;5068441;28;20203;-73
2021/08/25 00:47:01;;;;;;;1.03;0.93;;;14.40;99.90;;;;;;5069068;28;20227;-73
2021/08/25 00:49:28;;;;;;;0.97;0.97;;;14.40;99.90;;;;;;5068718;28;20220;-74
2021/08/25 00:51:55;;;;;;;0.93;0.80;;;14.40;99.90;;;;;;5068652;28;20211;-73
2021/08/25 00:54:23;;;;;;;1.20;1.10;;;14.40;99.90;;;;;;5066991;28;20217;-73
2021/08/25 00:56:52;;;;;;;0.90;0.90;;;14.70;99.90;;;;;;5068310;28;20208;-73
2021/08/25 00:59:20;;;;;;;0.80;0.70;;;14.30;99.90;;;;;;5067787;28;20276;-74
2021/08/25 01:01:55;;;;;;;1.10;1.00;;;14.30;99.90;;;;;;5068490;28;20640;-73
2021/08/25 01:04:28;;;;;;;0.70;0.70;;;14.30;99.90;;;;;;5068397;28;20702;-73
2021/08/25 01:06:56;;;;;;;0.70;0.70;;;14.30;99.90;;;;;;5062405;28;20201;-73
2021/08/25 01:09:23;;;;;;;0.83;0.83;;;14.30;99.90;;;;;;5061529;28;20231;-74
2021/08/25 01:11:53;;;;;;;0.67;0.67;;;14.30;99.90;;;;;;5066153;28;20207;-74
2021/08/25 01:14:20;;;;;;;0.70;0.70;;;14.30;99.90;;;;;;5067612;28;20606;-73
2021/08/25 01:16:49;;;;;;;0.70;0.70;;;14.30;99.90;;;;;;5068456;28;20665;-73
2021/08/25 01:19:18;;;;;;;0.70;0.60;;;14.30;99.90;;;;;;5068452;28;20273;-73
2021/08/25 01:21:48;;;;;;;0.77;0.77;;;14.30;99.90;;;;;;5068726;28;20590;-73
2021/08/25 01:24:16;;;;;;;0.60;0.60;;;14.20;99.90;;;;;;5055906;28;20271;-74
2021/08/25 01:26:44;;;;;;;0.87;0.87;;;14.20;99.90;;;;;;5065047;28;20572;-73
2021/08/25 01:29:25;;;;;;;0.70;0.70;;;14.20;99.90;;;;;;5077711;28;20214;-73
2021/08/25 01:31:52;;;;;;;1.07;0.80;;;14.20;99.90;;;;;;5068643;28;20203;-75
2021/08/25 01:34:19;;;;;;;0.70;0.70;;;14.20;99.90;;;;;;5060915;28;20207;-73
2021/08/25 01:36:49;;;;;;;0.70;0.70;;;14.10;99.90;;;;;;5079811;28;20660;-74
2021/08/25 01:39:16;;;;;;;0.40;0.40;;;14.20;99.90;;;;;;5065424;28;20548;-73
2021/08/25 01:41:43;;;;;;;0.77;0.77;;;14.20;99.90;;;;;;5066724;28;20234;-73
2021/08/25 01:44:11;;;;;;;0.77;0.77;;;14.10;99.90;;;;;;5065485;28;20676;-73
2021/08/25 01:46:42;;;;;;;1.70;0.83;;;14.10;99.90;;;;;;5068097;28;20285;-74
2021/08/25 01:49:11;;;;;;;0.70;0.70;;;14.10;99.90;;;;;;5068829;28;20290;-73
2021/08/25 01:51:39;;;;;;;0.60;0.60;;;14.10;99.90;;;;;;5070056;28;20202;-73
2021/08/25 01:54:07;;;;;;;0.70;0.70;;;14.10;99.90;;;;;;5066596;28;20210;-73
2021/08/25 01:56:33;;;;;;;0.80;0.70;;;14.10;99.90;;;;;;5069706;28;20199;-73
2021/08/25 01:59:02;;;;;;;0.77;0.70;;;14.10;99.90;;;;;;5070309;28;20206;-73
2021/08/25 02:01:29;;;;;;;0.70;0.70;;;14.10;99.90;;;;;;5071564;28;20273;-73
2021/08/25 02:04:01;;;;;;;0.80;0.80;;;14.00;99.90;;;;;;5065630;28;20202;-73
2021/08/25 02:06:28;;;;;;;0.80;0.80;;;14.10;99.90;;;;;;5066780;28;20212;-74
2021/08/25 02:08:55;;;;;;;0.83;0.80;;;14.10;99.90;;;;;;5069995;28;20221;-74
2021/08/25 02:11:22;;;;;;;0.77;0.77;;;14.00;99.90;;;;;;5070024;28;20284;-72
2021/08/25 02:13:49;;;;;;;0.70;0.70;;;14.00;99.90;;;;;;5070384;28;20223;-74
2021/08/25 02:16:16;;;;;;;0.80;0.80;;;14.00;99.90;;;;;;5070536;28;20673;-73
2021/08/25 02:18:43;;;;;;;0.70;0.70;;;14.00;99.90;;;;;;5071344;28;20206;-74
2021/08/25 02:21:11;;;;;;;0.70;0.70;;;14.00;99.90;;;;;;5071072;28;20686;-73
2021/08/25 02:23:38;;;;;;;0.70;0.70;;;14.00;99.90;;;;;;5064809;28;20533;-74
2021/08/25 02:26:05;;;;;;;0.80;0.80;;;13.90;99.90;;;;;;5056901;28;20207;-73
2021/08/25 02:28:33;;;;;;;1.00;1.00;;;13.80;99.90;;;;;;5067206;28;20194;-74
2021/08/25 02:30:59;;;;;;;1.77;0.90;;;13.90;99.90;;;;;;5067790;28;20246;-74
2021/08/25 02:33:26;;;;;;;1.20;1.10;;;13.90;99.90;;;;;;5059595;28;20199;-73
2021/08/25 02:35:53;;;;;;;1.10;1.00;;;13.90;99.90;;;;;;5076765;28;20559;-74
2021/08/25 02:38:21;;;;;;;1.17;1.07;;;13.80;99.90;;;;;;5082957;28;20246;-74
2021/08/25 02:40:49;;;;;;;1.27;1.00;;;13.80;99.90;;;;;;5072690;28;20226;-72
2021/08/25 02:43:16;;;;;;;1.20;1.10;;;13.80;99.90;;;;;;5066963;28;20361;-73
2021/08/25 02:45:43;;;;;;;1.67;1.23;;;13.80;99.90;;;;;;5069487;28;20210;-74
2021/08/25 02:48:10;;;;;;;1.20;1.10;;;13.70;99.90;;;;;;5073078;28;20686;-73
2021/08/25 02:50:37;;;;;;;0.87;0.87;;;13.70;99.90;;;;;;5071272;28;20317;-73
2021/08/25 02:53:04;;;;;;;1.20;1.10;;;13.70;99.90;;;;;;5072427;28;20202;-74
2021/08/25 02:55:32;;;;;;;0.87;0.87;;;13.70;99.90;;;;;;5072528;28;20209;-74
2021/08/25 02:57:59;;;;;;;1.00;1.00;;;13.60;99.90;;;;;;5071159;28;20207;-73
2021/08/25 03:00:26;;;;;;;1.20;1.10;;;13.60;99.90;;;;;;5071898;28;20199;-74
2021/08/25 03:02:53;;;;;;;0.90;0.90;;;13.60;99.90;;;;;;5073781;28;20198;-74
2021/08/25 03:05:20;;;;;;;0.90;0.90;;;13.60;99.90;;;;;;5071149;28;20297;-74
2021/08/25 03:07:47;;;;;;;1.63;1.30;;;13.60;99.90;;;;;;5067454;28;20207;-74
2021/08/25 03:10:14;;;;;;;1.07;0.97;;;13.60;99.90;;;;;;5068173;28;20326;-73
2021/08/25 03:12:43;;;;;;;1.27;1.17;;;13.60;99.90;;;;;;5069137;28;20326;-74
2021/08/25 03:15:10;;;;;;;1.83;0.90;;;13.60;99.90;;;;;;5064507;28;20217;-74
2021/08/25 03:17:37;;;;;;;1.23;1.00;;;13.50;99.90;;;;;;5075403;28;20280;-74
2021/08/25 03:20:05;;;;;;;0.97;0.93;;;13.60;99.90;;;;;;5080716;28;20197;-73
2021/08/25 03:22:32;;;;;;;1.23;0.90;;;13.60;99.90;;;;;;5069309;28;20398;-73
2021/08/25 03:24:59;;;;;;;0.80;0.80;;;13.50;99.90;;;;;;5084177;28;20209;-73
2021/08/25 03:27:26;;;;;;;1.10;1.00;;;13.50;99.90;;;;;;5078673;28;20201;-73
2021/08/25 03:29:54;;;;;;;1.07;1.07;;;13.50;99.90;;;;;;5072984;28;20221;-73
2021/08/25 03:32:21;;;;;;;1.23;1.10;;;13.50;99.90;;;;;;5066171;28;20203;-73
2021/08/25 03:34:48;;;;;;;1.10;1.00;;;13.50;99.90;;;;;;5068262;28;20745;-73
2021/08/25 03:37:15;;;;;;;1.20;1.10;;;13.40;99.90;;;;;;5070849;28;20286;-74
2021/08/25 03:39:43;;;;;;;1.80;1.10;;;13.40;99.90;;;;;;5072054;28;20201;-74
2021/08/25 03:42:10;;;;;;;1.30;1.20;;;13.40;99.90;;;;;;5068979;28;20238;-74
2021/08/25 03:44:37;;;;;;;2.00;1.53;;;13.40;99.90;;;;;;5072925;28;20217;-72
2021/08/25 03:47:06;;;;;;;1.30;1.10;;;13.40;99.90;;;;;;5072062;28;20200;-74
2021/08/25 03:49:34;;;;;;;1.10;1.00;;;13.40;99.90;;;;;;5072357;28;20217;-74
2021/08/25 03:52:01;;;;;;;1.10;1.10;;;13.40;99.90;;;;;;5071945;28;20529;-74
2021/08/25 03:54:28;;;;;;;1.20;1.20;;;13.40;99.90;;;;;;5071912;28;20561;-74
2021/08/25 03:56:56;;;;;;;1.30;1.20;;;13.40;99.90;;;;;;5071346;28;20248;-73
2021/08/25 03:59:23;;;;;;;0.97;0.90;;;13.40;99.90;;;;;;5073623;28;20196;-73
2021/08/25 04:01:50;;;;;;;1.37;1.27;;;13.40;99.90;;;;;;5073708;28;20220;-73
2021/08/25 04:04:18;;;;;;;0.87;0.87;;;13.40;99.90;;;;;;5076246;28;20248;-74
2021/08/25 04:06:46;;;;;;;1.70;1.00;;;13.40;99.90;;;;;;5071891;28;20204;-74
2021/08/25 04:09:13;;;;;;;0.80;0.80;;;13.50;99.90;;;;;;5076027;28;20197;-73
2021/08/25 04:11:40;;;;;;;1.10;1.00;;;13.50;99.90;;;;;;5060737;28;20221;-74
2021/08/25 04:14:07;;;;;;;1.30;1.20;;;13.50;99.90;;;;;;5071631;28;20411;-75
2021/08/25 04:16:34;;;;;;;1.17;1.00;;;13.60;99.90;;;;;;5074754;28;20704;-73
2021/08/25 04:19:00;;;;;;;0.83;0.83;;;13.60;99.90;;;;;;5078543;28;20202;-74
2021/08/25 04:21:29;;;;;;;0.70;0.70;;;13.60;99.90;;;;;;5076004;28;20594;-72
2021/08/25 04:23:56;;;;;;;1.10;1.00;;;13.70;99.90;;;;;;5066337;28;20199;-73
2021/08/25 04:26:23;;;;;;;0.80;0.80;;;13.80;99.90;;;;;;5060953;28;20210;-75
2021/08/25 04:28:50;;;;;;;1.73;0.90;;;13.80;99.90;;;;;;5069130;28;20197;-73
2021/08/25 04:31:16;;;;;;;1.67;1.20;;;13.90;99.90;;;;;;5069303;28;20230;-74
2021/08/25 04:33:43;;;;;;;0.90;0.90;;;14.10;99.90;;;;;;5065107;28;20326;-74
2021/08/25 04:36:10;;;;;;;0.93;0.93;;;14.10;99.90;;;;;;5068134;28;20267;-74
2021/08/25 04:38:39;;;;;;;1.07;1.00;;;14.20;99.90;;;;;;5069143;28;20199;-73
2021/08/25 04:41:05;;;;;;;0.80;0.80;;;14.30;99.90;;;;;;5068670;28;20206;-72
2021/08/25 04:43:32;;;;;;;1.20;1.10;;;14.30;99.90;;;;;;5069155;28;20833;-73
2021/08/25 04:45:59;;;;;;;1.00;1.00;;;14.30;99.90;;;;;;5072213;28;20205;-73
2021/08/25 04:48:26;;;;;;;1.10;1.00;;;14.40;99.90;;;;;;5071976;28;20719;-73
2021/08/25 04:50:53;;;;;;;1.10;1.00;;;14.40;99.90;;;;;;5072608;28;20226;-71
2021/08/25 04:53:20;;;;;;;0.87;0.83;;;14.50;99.90;;;;;;5072380;28;20221;-73
2021/08/25 04:55:49;;;;;;;1.40;1.10;;;14.50;99.90;;;;;;5068059;28;20188;-74
2021/08/25 04:58:16;;;;;;;1.13;1.00;;;14.60;99.90;;;;;;5072639;28;20196;-73
2021/08/25 05:00:46;;;;;;;1.10;1.00;;;14.70;99.90;;;;;;5071906;28;20205;-73
2021/08/25 05:03:13;;;;;;;1.10;1.00;;;14.70;99.90;;;;;;5071113;28;20366;-73
2021/08/25 05:05:40;;;;;;;1.27;0.90;;;14.80;99.90;;;;;;5068383;28;20265;-74
2021/08/25 05:08:07;;;;;;;1.30;1.20;;;14.90;99.90;;;;;;5066453;28;20323;-74
2021/08/25 05:10:34;;;;;;;1.40;1.30;;;14.90;99.90;;;;;;5067764;28;20222;-73
2021/08/25 05:13:02;;;;;;;1.57;1.13;;;15.00;99.90;;;;;;5072653;28;20204;-74
2021/08/25 05:15:29;;;;;;;0.90;0.90;;;15.10;99.90;;;;;;5071221;28;20200;-74
2021/08/25 05:17:56;;;;;;;1.20;1.10;;;15.20;99.90;;;;;;5074350;28;20208;-74
2021/08/25 05:20:23;;;;;;;1.40;1.30;;;15.30;99.90;;;;;;5072675;28;20192;-74
2021/08/25 05:22:50;;;;;;;1.03;1.00;;;15.60;99.90;;;;;;5076040;28;20203;-73
2021/08/25 05:25:17;;;;;;;1.10;1.00;;;15.60;99.90;;;;;;5057800;28;20626;-74
2021/08/25 05:27:44;;;;;;;1.20;1.10;;;15.70;99.90;;;;;;5071654;28;20551;-73
2021/08/25 05:30:13;;;;;;;0.93;0.87;;;15.80;99.90;;;;;;5077380;28;20667;-74
2021/08/25 05:32:40;;;;;;;1.53;1.30;;;15.90;99.90;;;;;;5053712;28;20250;-73
2021/08/25 05:35:08;;;;;;;1.43;1.30;;;16.10;99.90;;;;;;5075810;28;20200;-73
2021/08/25 05:37:35;;;;;;;2.20;1.70;;;16.20;99.90;;;;;;5064933;28;20200;-74
2021/08/25 05:40:02;;;;;;;1.43;1.27;;;16.50;99.70;;;;;;5076775;28;20528;-74
2021/08/25 05:42:29;;;;;;;1.43;1.33;;;16.80;99.20;;;;;;5072094;28;20282;-73
2021/08/25 05:44:56;;;;;;;1.97;1.77;;;17.20;98.60;;;;;;5069749;28;20201;-73
2021/08/25 05:47:24;;;;;;;1.70;1.57;;;17.70;97.70;;;;;;5071022;28;20246;-73
2021/08/25 05:49:51;;;;;;;2.90;1.30;;;18.00;97.10;;;;;;5076084;28;20544;-73
2021/08/25 05:52:18;;;;;;;1.57;1.47;;;18.20;96.50;;;;;;5073762;28;20308;-73
2021/08/25 05:54:45;;;;;;;3.23;1.53;;;18.40;96.00;;;;;;5073410;28;20258;-73
2021/08/25 05:57:12;;;;;;;1.50;1.30;;;18.90;95.80;;;;;;5073306;28;20274;-73
2021/08/25 05:59:39;;;;;;;1.87;1.33;;;19.10;95.10;;;;;;5077588;28;20212;-74
2021/08/25 06:02:06;;;;;;;2.17;1.52;;;19.60;94.30;;;;;;5076017;28;20197;-73
2021/08/25 06:04:34;;;;;;;1.60;1.50;;;20.10;93.40;;;;;;5077869;28;20203;-73
2021/08/25 06:07:01;;;;;;;1.50;1.40;;;20.50;92.60;;;;;;5061323;28;20189;-71
2021/08/25 06:09:28;;;;;;;1.35;1.25;;;20.90;91.80;;;;;;5061214;28;20204;-73
2021/08/25 06:11:55;;;;;;;1.63;1.27;;;21.20;91.00;;;;;;5061928;28;20519;-74
2021/08/25 06:14:22;;;;;;;1.17;1.13;;;21.40;90.40;;;;;;5069551;28;20196;-73
2021/08/25 06:16:49;;;;;;;1.27;1.17;;;21.60;90.00;;;;;;5064545;28;20201;-72
2021/08/25 06:19:16;;;;;;;1.40;1.30;;;21.70;88.70;;;;;;5067266;28;20205;-71
2021/08/25 06:21:46;;;;;;;1.20;1.10;;;21.60;88.00;;;;;;5069783;28;20611;-74
2021/08/25 06:24:13;;;;;;;1.27;1.17;;;21.50;87.90;;;;;;5067588;28;20282;-74
2021/08/25 06:26:40;;;;;;;1.00;1.00;;;21.40;87.30;;;;;;5062383;28;20201;-74
2021/08/25 06:29:07;;;;;;;1.30;1.20;;;21.30;87.10;;;;;;5067083;28;20326;-72
2021/08/25 06:31:35;;;;;;;1.20;1.10;;;21.30;86.90;;;;;;5068838;28;20228;-72
2021/08/25 06:34:02;;;;;;;1.45;1.35;;;21.80;86.10;;;;;;5066804;28;20276;-73
2021/08/25 06:36:29;;;;;;;0.95;0.95;;;22.40;84.30;;;;;;5068375;28;20190;-73
2021/08/25 06:38:57;;;;;;;1.25;1.15;;;23.10;81.80;;;;;;5066631;28;20275;-74
2021/08/25 06:41:24;;;;;;;1.60;1.50;;;23.90;79.20;;;;;;5067271;28;20258;-74
2021/08/25 06:43:51;;;;;;;1.35;1.25;;;25.00;75.80;;;;;;5066435;28;20740;-73
2021/08/25 06:46:18;;;;;;;1.40;1.30;;;26.10;71.40;;;;;;5068100;28;20197;-73
2021/08/25 06:48:45;;;;;;;1.50;1.40;;;27.10;66.60;;;;;;5063579;28;20198;-74
2021/08/25 06:51:12;;;;;;;1.27;1.27;;;28.20;63.30;;;;;;5069024;28;20252;-73
2021/08/25 06:53:39;;;;;;;1.50;1.40;;;29.30;59.60;;;;;;5064187;28;20205;-72
2021/08/25 06:56:07;;;;;;;1.60;1.50;;;30.30;56.90;;;;;;5067045;28;20219;-73
2021/08/25 06:58:34;;;;;;;1.40;1.30;;;31.10;54.50;;;;;;5067114;28;20229;-73
2021/08/25 07:01:01;;;;;;;2.00;1.85;;;32.00;52.30;;;;;;5067780;28;20231;-73
2021/08/25 07:03:28;;;;;;;1.60;1.50;;;32.90;49.70;;;;;;5068226;28;20762;-72
2021/08/25 07:05:54;;;;;;;3.13;1.95;;;33.60;47.40;;;;;;5066925;28;20247;-74
2021/08/25 07:08:21;;;;;;;2.00;1.90;;;34.30;44.40;;;;;;5067097;28;20201;-73
2021/08/25 07:10:48;;;;;;;2.50;1.95;;;35.10;42.80;;;;;;5065539;28;20221;-74
2021/08/25 07:13:16;;;;;;;1.80;1.70;;;36.00;41.10;;;;;;5067079;28;20205;-73
2021/08/25 07:15:43;;;;;;;1.58;1.48;;;36.80;40.10;;;;;;5068123;28;20372;-73
2021/08/25 07:18:10;;;;;;;2.03;1.92;;;37.70;39.30;;;;;;5066766;28;20193;-73
2021/08/25 07:20:37;;;;;;;2.63;2.22;;;38.40;37.90;;;;;;5066328;28;20225;-74
2021/08/25 07:23:04;;;;;;;2.38;2.17;;;38.90;36.20;;;;;;5066605;28;20201;-72
2021/08/25 07:25:31;;;;;;;1.90;1.80;;;39.40;34.90;;;;;;5063666;28;20197;-73
2021/08/25 07:27:58;;;;;;;2.38;2.22;;;39.80;34.10;;;;;;5066965;28;20201;-73
2021/08/25 07:30:26;;;;;;;2.03;1.92;;;39.90;33.30;;;;;;5065486;28;20437;-73
2021/08/25 07:32:53;;;;;;;2.40;2.20;;;39.50;32.60;;;;;;5067120;28;20205;-73
2021/08/25 07:35:21;;;;;;;2.80;2.60;;;40.10;31.50;;;;;;5064686;28;20207;-73
2021/08/25 07:37:48;;;;;;;2.50;2.40;;;40.90;30.00;;;;;;5064866;28;20590;-73
2021/08/25 07:40:14;;;;;;;2.78;2.58;;;41.50;29.20;;;;;;5066881;28;20263;-73
2021/08/25 07:42:41;;;;;;;2.63;2.50;;;42.10;28.20;;;;;;5065426;28;20711;-73
2021/08/25 07:45:09;;;;;;;2.63;2.42;;;42.70;27.60;;;;;;5067882;28;20203;-74
2021/08/25 07:47:38;;;;;;;2.40;2.30;;;43.50;27.20;;;;;;5065484;28;20192;-73
2021/08/25 07:50:06;;;;;;;2.80;2.63;;;44.40;26.70;;;;;;5067053;28;20499;-74
2021/08/25 07:52:33;;;;;;;2.50;2.30;;;45.10;25.80;;;;;;5064778;28;20580;-73
2021/08/25 07:55:00;;;;;;;2.80;2.60;;;45.40;25.90;;;;;;5061810;28;20200;-74
2021/08/25 07:57:27;;;;;;;2.85;2.72;;;45.60;25.20;;;;;;5066269;28;20208;-74
2021/08/25 07:59:54;;;;;;;2.60;2.50;;;45.80;24.90;;;;;;5064802;28;20192;-73
2021/08/25 08:02:21;;;;;;;3.28;2.97;;;46.20;23.70;;;;;;5066580;28;20204;-73
2021/08/25 08:04:49;;;;;;;3.10;2.90;;;46.00;23.70;;;;;;5067452;28;20188;-73
2021/08/25 08:07:16;;;;;;;3.20;3.00;;;45.60;23.80;;;;;;5065384;28;20242;-74
2021/08/25 08:09:43;;;;;;;2.90;2.70;;;45.00;23.80;;;;;;5067462;28;20200;-74
2021/08/25 08:12:10;;;;;;;2.90;2.70;;;44.70;24.10;;;;;;5068186;28;20627;-74
2021/08/25 08:14:37;;;;;;;3.00;2.70;;;44.30;24.20;;;;;;5069432;28;20577;-75
2021/08/25 08:17:05;;;;;;;3.38;3.17;;;43.80;23.80;;;;;;5069666;28;20197;-73
2021/08/25 08:19:33;;;;;;;2.80;2.70;;;43.20;23.80;;;;;;5069272;28;20302;-74
2021/08/25 08:22:03;;;;;;;2.92;2.72;;;42.50;24.20;;;;;;5067001;28;20188;-74
2021/08/25 08:24:31;;;;;;;2.88;2.67;;;41.80;24.70;;;;;;5062379;28;20203;-73
2021/08/25 08:26:59;;;;;;;2.97;2.80;;;41.00;24.90;;;;;;5064880;28;20744;-74
2021/08/25 08:29:26;;;;;;;2.83;2.50;;;40.10;25.20;;;;;;5065935;28;20279;-73
2021/08/25 08:31:53;;;;;;;2.78;2.58;;;39.30;25.70;;;;;;5060642;28;20220;-74
2021/08/25 08:34:20;;;;;;;2.60;2.40;;;38.60;26.00;;;;;;5064399;28;20828;-74
2021/08/25 08:36:47;;;;;;;2.58;2.38;;;37.70;26.50;;;;;;5066497;28;20193;-73
2021/08/25 08:39:15;;;;;;;2.60;2.40;;;37.00;27.10;;;;;;5064379;28;20288;-72
2021/08/25 08:41:43;;;;;;;2.72;2.53;;;36.40;27.50;;;;;;5067850;28;20434;-74
2021/08/25 08:44:12;;;;;;;2.40;2.30;;;35.90;27.80;;;;;;5064610;28;20184;-74
2021/08/25 08:46:40;;;;;;;2.70;2.60;;;36.00;27.90;;;;;;5068294;28;20201;-73
2021/08/25 08:49:08;;;;;;;2.70;2.50;;;36.20;27.80;;;;;;5066451;28;20197;-74
2021/08/25 08:51:38;;;;;;;6.03;2.20;;;36.20;27.90;;;;;;5068798;28;20216;-74
2021/08/25 08:54:05;;;;;;;2.75;2.55;;;36.70;27.60;;;;;;5067729;28;20228;-75
2021/08/25 08:56:34;;;;;;;3.35;2.80;;;37.80;27.10;;;;;;5066526;28;20234;-74
2021/08/25 08:59:01;;;;;;;2.70;2.50;;;38.70;26.60;;;;;;5070752;28;20212;-73
2021/08/25 09:01:29;;;;;;;3.45;3.22;;;39.40;26.30;;;;;;5066655;28;20287;-75
2021/08/25 09:03:56;;;;;;;2.25;2.15;;;39.20;26.00;;;;;;5070868;28;20635;-73
2021/08/25 09:06:42;;;;;;;2.85;2.63;;;38.70;26.30;;;;;;5072399;28;20200;-73
2021/08/25 09:09:09;;;;;;;2.88;2.67;;;38.00;26.90;;;;;;5063205;28;20201;-74
2021/08/25 09:11:48;;;;;;;3.25;2.90;;;37.20;27.10;;;;;;5068605;28;20289;-74
2021/08/25 09:14:15;;;;;;;2.72;2.53;;;36.40;27.40;;;;;;5066122;28;20193;-73
2021/08/25 09:16:42;;;;;;;2.45;2.35;;;35.80;27.90;;;;;;5065439;28;20197;-74
2021/08/25 09:19:11;;;;;;;3.30;2.90;;;35.60;28.10;;;;;;5061328;28;20211;-74
2021/08/25 09:21:39;;;;;;;2.65;2.45;;;35.30;28.20;;;;;;5064693;28;20597;-73
2021/08/25 09:24:07;;;;;;;3.08;2.75;;;35.00;28.40;;;;;;5058910;28;20210;-73
2021/08/25 09:26:34;;;;;;;2.92;2.08;;;34.40;28.60;;;;;;5063202;28;20281;-71
2021/08/25 09:29:18;;;;;;;2.70;2.50;;;33.80;29.10;;;;;;5062640;28;20202;-73
2021/08/25 09:31:45;;;;;;;4.22;2.50;;;33.10;29.50;;;;;;5062884;28;20217;-72
2021/08/25 09:34:26;;;;;;;3.65;2.50;;;32.40;30.00;;;;;;5075035;28;20197;-74
2021/08/25 09:37:06;;;;;;;2.70;2.20;;;31.70;30.60;;;;;;5061161;28;20205;-73
2021/08/25 09:39:33;;;;;;;2.33;2.13;;;31.00;31.30;;;;;;5063497;28;20690;-73
2021/08/25 09:42:04;;;;;;;2.10;2.00;;;30.50;31.80;;;;;;5063114;28;20426;-72
2021/08/25 09:44:32;;;;;;;1.98;1.88;;;30.10;32.30;;;;;;5065338;28;20219;-72
2021/08/25 09:46:59;;;;;;;2.42;2.22;;;29.80;32.80;;;;;;5064795;28;20649;-73
2021/08/25 09:49:26;;;;;;;2.33;2.13;;;29.50;33.30;;;;;;5064140;28;20586;-74
2021/08/25 09:51:55;;;;;;;2.50;2.22;;;29.20;33.70;;;;;;5065458;28;20675;-74
2021/08/25 09:54:22;;;;;;;2.10;2.00;;;28.90;34.20;;;;;;5062435;28;20197;-74
2021/08/25 09:56:53;;;;;;;1.92;1.83;;;28.60;34.50;;;;;;5064445;28;20201;-74
2021/08/25 09:59:21;;;;;;;2.50;2.30;;;28.70;35.00;;;;;;5063129;28;20201;-73
2021/08/25 10:01:53;;;;;;;1.90;1.80;;;28.30;35.20;;;;;;5063848;28;20514;-73
2021/08/25 10:04:20;;;;;;;2.17;2.08;;;28.00;35.40;;;;;;5068074;28;20196;-73
2021/08/25 10:06:48;;;;;;;4.07;2.33;;;27.90;35.80;;;;;;5067209;28;20193;-76
2021/08/25 10:09:16;;;;;;;1.88;1.70;;;27.70;36.20;;;;;;5062927;28;20257;-76
2021/08/25 10:11:46;;;;;;;2.17;2.03;;;27.50;36.50;;;;;;5063363;28;20213;-75
2021/08/25 10:14:16;;;;;;;4.65;2.00;;;27.10;36.70;;;;;;5064086;28;20716;-76
2021/08/25 10:16:44;;;;;;;3.55;2.40;;;26.70;37.30;;;;;;5068990;28;20205;-76
2021/08/25 10:19:26;;;;;;;2.00;1.90;;;26.30;37.70;;;;;;5067623;28;20196;-76
2021/08/25 10:21:54;;;;;;;2.30;2.03;;;26.00;38.20;;;;;;5062050;28;20243;-75
2021/08/25 10:24:22;;;;;;;2.15;1.95;;;25.70;38.60;;;;;;5056956;28;20664;-75
2021/08/25 10:27:13;;;;;;;2.15;1.95;;;25.50;38.90;;;;;;5062247;28;20439;-75
2021/08/25 10:30:13;;;;;;;2.15;1.95;;;25.30;39.40;;;;;;4985955;28;20195;-74
2021/08/25 10:33:10;;;;;;;2.03;1.92;;;25.10;39.80;;;;;;4943117;28;20288;-76
2021/08/25 10:35:43;;;;;;;2.40;2.20;;;24.90;40.00;;;;;;4921252;29;20201;-76
2021/08/25 10:38:27;;;;;;;2.47;1.80;;;24.70;40.20;;;;;;4943986;29;20272;-75
2021/08/25 10:41:00;;;;;;;2.22;2.03;;;24.70;40.50;;;;;;4941851;28;20284;-75
2021/08/25 10:43:42;;;;;;;3.28;2.25;;;24.60;40.80;;;;;;4922549;28;20705;-75
2021/08/25 10:46:12;;;;;;;4.50;2.30;;;24.30;40.70;;;;;;4922194;29;20820;-76
2021/08/25 10:48:45;;;;;;;2.30;2.10;;;24.30;41.20;;;;;;4943204;28;20455;-76
2021/08/25 10:51:41;;;;;;;2.10;2.00;;;24.20;41.10;;;;;;4946652;28;20209;-76
2021/08/25 10:54:14;;;;;;;4.43;2.70;;;24.10;41.20;;;;;;4940733;29;20260;-75
2021/08/25 10:56:46;;;;;;;2.03;1.88;;;24.00;41.10;;;;;;4930213;28;20217;-77
2021/08/25 10:59:19;;;;;;;2.00;1.90;;;23.90;41.20;;;;;;4921255;29;20490;-76
2021/08/25 11:01:47;;;;;;;2.10;2.00;;;23.80;41.20;;;;;;4931635;28;20443;-76
2021/08/25 11:04:16;;;;;;;1.85;1.75;;;23.70;41.40;;;;;;4960422;28;20207;-75
2021/08/25 11:06:51;;;;;;;2.13;1.98;;;23.70;41.40;;;;;;5048562;28;20290;-74
2021/08/25 11:09:34;;;;;;;2.45;2.25;;;23.70;41.30;;;;;;5065674;28;20526;-75
2021/08/25 11:12:05;;;;;;;3.30;2.45;;;23.50;41.30;;;;;;5070634;28;20295;-75
2021/08/25 11:14:35;;;;;;;2.50;2.17;;;23.30;41.40;;;;;;5068758;28;20257;-76
2021/08/25 11:17:07;;;;;;;2.17;1.98;;;23.10;41.50;;;;;;5061535;28;20465;-76
2021/08/25 11:19:37;;;;;;;3.35;2.45;;;23.00;42.30;;;;;;5068933;28;20276;-76
2021/08/25 11:22:05;;;;;;;1.80;1.70;;;22.90;41.80;;;;;;5064846;28;20221;-76
2021/08/25 11:24:39;;;;;;;6.03;2.75;;;22.80;41.90;;;;;;5067097;28;20201;-75
2021/08/25 11:27:22;;;;;;;6.65;2.10;;;22.70;42.00;;;;;;5064754;28;20221;-76
2021/08/25 11:30:22;;;;;;;2.78;2.22;;;22.70;42.10;;;;;;5056133;28;20225;-77
2021/08/25 11:32:52;;;;;;;2.90;2.25;;;22.60;42.30;;;;;;5001990;28;20223;-75
2021/08/25 11:35:24;;;;;;;3.00;2.70;;;22.40;42.50;;;;;;4989437;28;20587;-75
2021/08/25 11:37:54;;;;;;;2.55;2.33;;;22.30;42.60;;;;;;5004033;28;20317;-76
2021/08/25 11:40:23;;;;;;;2.45;2.25;;;22.30;42.70;;;;;;4986359;28;20858;-75
2021/08/25 11:42:50;;;;;;;2.20;2.10;;;22.30;42.90;;;;;;4998119;28;20760;-74
2021/08/25 11:45:19;;;;;;;3.00;2.40;;;22.30;43.00;;;;;;5004487;28;20442;-76
2021/08/25 11:47:48;;;;;;;4.50;2.67;;;22.20;43.00;;;;;;5005186;28;20204;-76
2021/08/25 11:50:15;;;;;;;2.88;2.25;;;22.20;43.10;;;;;;5004236;28;20203;-76
2021/08/25 11:52:43;;;;;;;3.50;2.30;;;22.20;43.10;;;;;;5004511;28;20243;-75
2021/08/25 11:55:12;;;;;;;2.67;2.47;;;22.20;43.30;;;;;;4988991;28;20242;-75
2021/08/25 11:57:41;;;;;;;2.47;2.28;;;22.20;43.40;;;;;;5003997;28;20207;-77
2021/08/25 12:00:08;;;;;;;2.50;2.30;;;22.10;43.30;;;;;;5019886;28;20395;-76
2021/08/25 12:02:52;;;;;;;3.05;2.60;;;22.10;43.50;;;;;;5004859;28;20200;-75
2021/08/25 12:05:20;;;;;;;3.35;2.63;;;22.00;43.70;;;;;;5066288;28;20623;-76
2021/08/25 12:08:08;;;;;;;3.08;2.78;;;21.90;43.90;;;;;;5065931;28;20189;-76
2021/08/25 12:10:39;;;;;;;2.50;2.30;;;21.80;44.00;;;;;;5063571;28;20200;-76
2021/08/25 12:13:06;;;;;;;2.67;2.47;;;21.80;44.10;;;;;;5066788;28;20282;-77
2021/08/25 12:15:47;;;;;;;2.65;2.15;;;21.80;44.20;;;;;;5063702;28;20219;-76
2021/08/25 12:18:14;;;;;;;3.10;1.98;;;21.80;44.20;;;;;;5065685;28;20287;-76
2021/08/25 12:20:44;;;;;;;2.40;2.20;;;21.80;44.20;;;;;;5066091;28;20709;-75
2021/08/25 12:23:13;;;;;;;2.55;2.35;;;21.80;44.30;;;;;;5064960;28;20726;-76
2021/08/25 12:25:43;;;;;;;2.60;2.40;;;21.80;44.50;;;;;;5059464;28;20430;-77
2021/08/25 12:28:11;;;;;;;4.20;2.40;;;21.70;44.50;;;;;;5066066;28;20691;-76
2021/08/25 12:30:40;;;;;;;2.80;2.55;;;21.70;44.60;;;;;;5064847;28;20221;-72
2021/08/25 12:33:10;;;;;;;2.40;2.20;;;21.70;44.70;;;;;;5065288;28;20217;-71
2021/08/25 12:35:38;;;;;;;2.67;1.90;;;21.70;45.00;;;;;;5061126;28;20232;-70
2021/08/25 12:38:06;;;;;;;2.47;2.28;;;21.70;45.10;;;;;;5063967;28;20217;-71
2021/08/25 12:40:34;;;;;;;2.38;2.17;;;21.70;45.30;;;;;;5062223;28;20604;-71
2021/08/25 12:43:03;;;;;;;2.88;2.20;;;21.70;45.30;;;;;;5059691;28;20221;-71
2021/08/25 12:45:30;;;;;;;2.70;2.45;;;21.70;45.30;;;;;;5066327;28;20243;-70
2021/08/25 12:47:58;;;;;;;2.90;2.60;;;21.60;45.30;;;;;;5067565;28;20614;-70
2021/08/25 12:50:25;;;;;;;2.92;2.53;;;21.60;45.40;;;;;;5063419;28;20198;-70
2021/08/25 12:52:52;;;;;;;3.67;2.60;;;21.60;45.60;;;;;;5068922;28;20238;-71
2021/08/25 12:55:20;;;;;;;3.60;2.63;;;21.60;45.60;;;;;;5066075;28;20200;-72